Time;durP1;ratioP1;P1;durP2;ratioP2;P2;SDS_P1;SDS_P2;PMS_P1;PMS_P2;Temp;Humidity;BMP_temperature;BMP_pressure;BME280_temperature;BME280_humidity;BME280_pressure;Samples;Min_cycle;Max_cycle;Signal;HPM_P1;HPM_P2
2019/07/16 00:00:11;;;;;;;10.3;9.299999;;;;;;;12.88;100;95241.99;;;;
2019/07/16 00:01:14;;;;;;;10.3;9.299999;;;;;;;12.88;100;95241.99;;;;
2019/07/16 00:02:15;;;;;;;11.7;10.5;;;;;;;12.75;100;95234.77;;;;
2019/07/16 00:03:16;;;;;;;11.7;10.5;;;;;;;12.75;100;95234.77;;;;
2019/07/16 00:04:17;;;;;;;11.7;10.5;;;;;;;12.75;100;95234.77;;;;
2019/07/16 00:05:18;;;;;;;11.7;10.5;;;;;;;12.75;100;95234.77;;;;
2019/07/16 00:06:19;;;;;;;11.7;10.5;;;;;;;12.75;100;95234.77;;;;
2019/07/16 00:07:20;;;;;;;11.7;10.5;;;;;;;12.75;100;95234.77;;;;
2019/07/16 00:08:21;;;;;;;11.7;10.5;;;;;;;12.75;100;95234.77;;;;
2019/07/16 00:09:23;;;;;;;11.7;10.5;;;;;;;12.75;100;95234.77;;;;
2019/07/16 00:10:24;;;;;;;11.7;10.5;;;;;;;12.75;100;95234.77;;;;
2019/07/16 00:11:25;;;;;;;11.7;10.5;;;;;;;12.75;100;95234.77;;;;
2019/07/16 00:12:26;;;;;;;10.7;9.6;;;;;;;12.69;100;95245.23;;;;
2019/07/16 00:13:27;;;;;;;10.7;9.6;;;;;;;12.69;100;95245.23;;;;
2019/07/16 00:14:28;;;;;;;10.7;9.6;;;;;;;12.69;100;95245.23;;;;
2019/07/16 00:15:29;;;;;;;10.7;9.6;;;;;;;12.69;100;95245.23;;;;
2019/07/16 00:16:30;;;;;;;10.7;9.6;;;;;;;12.69;100;95245.23;;;;
2019/07/16 00:17:31;;;;;;;10.7;9.6;;;;;;;12.69;100;95245.23;;;;
2019/07/16 00:18:32;;;;;;;10.7;9.6;;;;;;;12.69;100;95245.23;;;;
2019/07/16 00:19:33;;;;;;;10.7;9.6;;;;;;;12.69;100;95245.23;;;;
2019/07/16 00:20:35;;;;;;;10.7;9.6;;;;;;;12.69;100;95245.23;;;;
2019/07/16 00:21:36;;;;;;;10.7;9.6;;;;;;;12.69;100;95245.23;;;;
2019/07/16 00:22:37;;;;;;;10.7;9.6;;;;;;;12.69;100;95245.23;;;;
2019/07/16 00:23:38;;;;;;;11.55;10.4;;;;;;;12.54;100;95253.55;;;;
2019/07/16 00:24:39;;;;;;;11.55;10.4;;;;;;;12.54;100;95253.55;;;;
2019/07/16 00:25:40;;;;;;;11.55;10.4;;;;;;;12.54;100;95253.55;;;;
2019/07/16 00:26:41;;;;;;;11.55;10.4;;;;;;;12.54;100;95253.55;;;;
2019/07/16 00:27:42;;;;;;;11.55;10.4;;;;;;;12.54;100;95253.55;;;;
2019/07/16 00:28:43;;;;;;;11.55;10.4;;;;;;;12.54;100;95253.55;;;;
2019/07/16 00:29:44;;;;;;;11.55;10.4;;;;;;;12.54;100;95253.55;;;;
2019/07/16 00:30:45;;;;;;;11.55;10.4;;;;;;;12.54;100;95253.55;;;;
2019/07/16 00:31:46;;;;;;;11.55;10.4;;;;;;;12.54;100;95253.55;;;;
2019/07/16 00:32:48;;;;;;;11.55;10.4;;;;;;;12.54;100;95253.55;;;;
2019/07/16 00:33:49;;;;;;;11.9;10.75;;;;;;;12.46;100;95253.05;;;;
2019/07/16 00:34:50;;;;;;;11.9;10.75;;;;;;;12.46;100;95253.05;;;;
2019/07/16 00:35:51;;;;;;;11.9;10.75;;;;;;;12.46;100;95253.05;;;;
2019/07/16 00:36:52;;;;;;;11.9;10.75;;;;;;;12.46;100;95253.05;;;;
2019/07/16 00:37:53;;;;;;;11.9;10.75;;;;;;;12.46;100;95253.05;;;;
2019/07/16 00:38:54;;;;;;;11.9;10.75;;;;;;;12.46;100;95253.05;;;;
2019/07/16 00:39:55;;;;;;;11.9;10.75;;;;;;;12.46;100;95253.05;;;;
2019/07/16 00:40:56;;;;;;;11.9;10.75;;;;;;;12.46;100;95253.05;;;;
2019/07/16 00:41:57;;;;;;;11.9;10.75;;;;;;;12.46;100;95253.05;;;;
2019/07/16 00:42:58;;;;;;;11.9;10.75;;;;;;;12.46;100;95253.05;;;;
2019/07/16 00:44:00;;;;;;;11.9;10.75;;;;;;;12.46;100;95253.05;;;;
2019/07/16 00:45:01;;;;;;;12.45;11.15;;;;;;;12.33;100;95254.32;;;;
2019/07/16 00:46:03;;;;;;;12.45;11.15;;;;;;;12.33;100;95254.32;;;;
2019/07/16 00:47:04;;;;;;;12.45;11.15;;;;;;;12.33;100;95254.32;;;;
2019/07/16 00:48:05;;;;;;;12.45;11.15;;;;;;;12.33;100;95254.32;;;;
2019/07/16 00:49:06;;;;;;;12.45;11.15;;;;;;;12.33;100;95254.32;;;;
2019/07/16 00:50:07;;;;;;;12.45;11.15;;;;;;;12.33;100;95254.32;;;;
2019/07/16 00:51:17;;;;;;;12.45;11.15;;;;;;;12.33;100;95254.32;;;;
2019/07/16 00:52:18;;;;;;;12.45;11.15;;;;;;;12.33;100;95254.32;;;;
2019/07/16 00:53:19;;;;;;;12.45;11.15;;;;;;;12.33;100;95254.32;;;;
2019/07/16 00:54:20;;;;;;;12.45;11.15;;;;;;;12.33;100;95254.32;;;;
2019/07/16 00:55:22;;;;;;;11.95;10.75;;;;;;;12.27;100;95247.58;;;;
2019/07/16 00:56:23;;;;;;;11.95;10.75;;;;;;;12.27;100;95247.58;;;;
2019/07/16 00:57:24;;;;;;;11.95;10.75;;;;;;;12.27;100;95247.58;;;;
2019/07/16 00:58:25;;;;;;;11.95;10.75;;;;;;;12.27;100;95247.58;;;;
2019/07/16 00:59:26;;;;;;;11.95;10.75;;;;;;;12.27;100;95247.58;;;;
2019/07/16 01:00:27;;;;;;;11.95;10.75;;;;;;;12.27;100;95247.58;;;;
2019/07/16 01:01:40;;;;;;;11.95;10.75;;;;;;;12.27;100;95247.58;;;;
2019/07/16 01:02:41;;;;;;;11.95;10.75;;;;;;;12.27;100;95247.58;;;;
2019/07/16 01:03:42;;;;;;;11.95;10.75;;;;;;;12.27;100;95247.58;;;;
2019/07/16 01:04:43;;;;;;;11.95;10.75;;;;;;;12.27;100;95247.58;;;;
2019/07/16 01:05:44;;;;;;;12.05;10.9;;;;;;;12.17;100;95251.08;;;;
2019/07/16 01:06:45;;;;;;;12.05;10.9;;;;;;;12.17;100;95251.08;;;;
2019/07/16 01:07:46;;;;;;;12.05;10.9;;;;;;;12.17;100;95251.08;;;;
2019/07/16 01:08:48;;;;;;;12.05;10.9;;;;;;;12.17;100;95251.08;;;;
2019/07/16 01:09:49;;;;;;;12.05;10.9;;;;;;;12.17;100;95251.08;;;;
2019/07/16 01:10:50;;;;;;;12.05;10.9;;;;;;;12.17;100;95251.08;;;;
2019/07/16 01:11:52;;;;;;;12.05;10.9;;;;;;;12.17;100;95251.08;;;;
2019/07/16 01:12:53;;;;;;;12.05;10.9;;;;;;;12.17;100;95251.08;;;;
2019/07/16 01:13:54;;;;;;;12.05;10.9;;;;;;;12.17;100;95251.08;;;;
2019/07/16 01:14:55;;;;;;;12.05;10.9;;;;;;;12.17;100;95251.08;;;;
2019/07/16 01:15:56;;;;;;;12.75;11.4;;;;;;;12.13;100;95253.99;;;;
2019/07/16 01:16:57;;;;;;;12.75;11.4;;;;;;;12.13;100;95253.99;;;;
2019/07/16 01:17:59;;;;;;;12.75;11.4;;;;;;;12.13;100;95253.99;;;;
2019/07/16 01:19:00;;;;;;;12.75;11.4;;;;;;;12.13;100;95253.99;;;;
2019/07/16 01:20:01;;;;;;;12.75;11.4;;;;;;;12.13;100;95253.99;;;;
2019/07/16 01:21:02;;;;;;;12.75;11.4;;;;;;;12.13;100;95253.99;;;;
2019/07/16 01:22:04;;;;;;;12.75;11.4;;;;;;;12.13;100;95253.99;;;;
2019/07/16 01:23:05;;;;;;;12.75;11.4;;;;;;;12.13;100;95253.99;;;;
2019/07/16 01:24:06;;;;;;;12.75;11.4;;;;;;;12.13;100;95253.99;;;;
2019/07/16 01:25:07;;;;;;;12.75;11.4;;;;;;;12.13;100;95253.99;;;;
2019/07/16 01:26:09;;;;;;;12.75;11.4;;;;;;;12.13;100;95253.99;;;;
2019/07/16 01:27:10;;;;;;;11.7;10.5;;;;;;;11.99;100;95257.98;;;;
2019/07/16 01:28:11;;;;;;;11.7;10.5;;;;;;;11.99;100;95257.98;;;;
2019/07/16 01:29:13;;;;;;;11.7;10.5;;;;;;;11.99;100;95257.98;;;;
2019/07/16 01:30:14;;;;;;;11.7;10.5;;;;;;;11.99;100;95257.98;;;;
2019/07/16 01:31:16;;;;;;;11.7;10.5;;;;;;;11.99;100;95257.98;;;;
2019/07/16 01:32:17;;;;;;;11.7;10.5;;;;;;;11.99;100;95257.98;;;;
2019/07/16 01:33:18;;;;;;;11.7;10.5;;;;;;;11.99;100;95257.98;;;;
2019/07/16 01:34:19;;;;;;;11.7;10.5;;;;;;;11.99;100;95257.98;;;;
2019/07/16 01:35:20;;;;;;;11.7;10.5;;;;;;;11.99;100;95257.98;;;;
2019/07/16 01:36:21;;;;;;;11.7;10.5;;;;;;;11.99;100;95257.98;;;;
2019/07/16 01:37:23;;;;;;;12.4;11.1;;;;;;;11.93;100;95253.13;;;;
2019/07/16 01:38:24;;;;;;;12.4;11.1;;;;;;;11.93;100;95253.13;;;;
2019/07/16 01:39:25;;;;;;;12.4;11.1;;;;;;;11.93;100;95253.13;;;;
2019/07/16 01:40:26;;;;;;;12.4;11.1;;;;;;;11.93;100;95253.13;;;;
2019/07/16 01:41:27;;;;;;;12.4;11.1;;;;;;;11.93;100;95253.13;;;;
2019/07/16 01:42:29;;;;;;;12.4;11.1;;;;;;;11.93;100;95253.13;;;;
2019/07/16 01:43:30;;;;;;;12.4;11.1;;;;;;;11.93;100;95253.13;;;;
2019/07/16 01:44:31;;;;;;;12.4;11.1;;;;;;;11.93;100;95253.13;;;;
2019/07/16 01:45:32;;;;;;;12.4;11.1;;;;;;;11.93;100;95253.13;;;;
2019/07/16 01:46:33;;;;;;;12.4;11.1;;;;;;;11.93;100;95253.13;;;;
2019/07/16 01:47:34;;;;;;;12.4;11.1;;;;;;;11.93;100;95253.13;;;;
2019/07/16 01:48:36;;;;;;;12.55;11.3;;;;;;;11.79;100;95250.97;;;;
2019/07/16 01:49:37;;;;;;;12.55;11.3;;;;;;;11.79;100;95250.97;;;;
2019/07/16 01:50:38;;;;;;;12.55;11.3;;;;;;;11.79;100;95250.97;;;;
2019/07/16 01:51:39;;;;;;;12.55;11.3;;;;;;;11.79;100;95250.97;;;;
2019/07/16 01:52:40;;;;;;;12.55;11.3;;;;;;;11.79;100;95250.97;;;;
2019/07/16 01:53:42;;;;;;;12.55;11.3;;;;;;;11.79;100;95250.97;;;;
2019/07/16 01:54:43;;;;;;;12.55;11.3;;;;;;;11.79;100;95250.97;;;;
2019/07/16 01:55:44;;;;;;;12.55;11.3;;;;;;;11.79;100;95250.97;;;;
2019/07/16 01:56:45;;;;;;;12.55;11.3;;;;;;;11.79;100;95250.97;;;;
2019/07/16 01:57:46;;;;;;;12.55;11.3;;;;;;;11.79;100;95250.97;;;;
2019/07/16 01:58:47;;;;;;;13.35;11.65;;;;;;;11.73;100;95251;;;;
2019/07/16 01:59:48;;;;;;;13.35;11.65;;;;;;;11.73;100;95251;;;;
2019/07/16 02:00:49;;;;;;;13.35;11.65;;;;;;;11.73;100;95251;;;;
2019/07/16 02:01:51;;;;;;;13.35;11.65;;;;;;;11.73;100;95251;;;;
2019/07/16 02:02:52;;;;;;;13.35;11.65;;;;;;;11.73;100;95251;;;;
2019/07/16 02:03:53;;;;;;;13.35;11.65;;;;;;;11.73;100;95251;;;;
2019/07/16 02:04:54;;;;;;;13.35;11.65;;;;;;;11.73;100;95251;;;;
2019/07/16 02:05:55;;;;;;;13.35;11.65;;;;;;;11.73;100;95251;;;;
2019/07/16 02:06:57;;;;;;;13.35;11.65;;;;;;;11.73;100;95251;;;;
2019/07/16 02:07:58;;;;;;;13.35;11.65;;;;;;;11.73;100;95251;;;;
2019/07/16 02:08:59;;;;;;;13.65;12.25;;;;;;;11.63;100;95251.62;;;;
2019/07/16 02:10:00;;;;;;;13.65;12.25;;;;;;;11.63;100;95251.62;;;;
2019/07/16 02:11:02;;;;;;;13.65;12.25;;;;;;;11.63;100;95251.62;;;;
2019/07/16 02:12:03;;;;;;;13.65;12.25;;;;;;;11.63;100;95251.62;;;;
2019/07/16 02:13:04;;;;;;;13.65;12.25;;;;;;;11.63;100;95251.62;;;;
2019/07/16 02:14:06;;;;;;;13.65;12.25;;;;;;;11.63;100;95251.62;;;;
2019/07/16 02:15:07;;;;;;;13.65;12.25;;;;;;;11.63;100;95251.62;;;;
2019/07/16 02:16:08;;;;;;;13.65;12.25;;;;;;;11.63;100;95251.62;;;;
2019/07/16 02:17:09;;;;;;;13.65;12.25;;;;;;;11.63;100;95251.62;;;;
2019/07/16 02:18:11;;;;;;;13.65;12.25;;;;;;;11.63;100;95251.62;;;;
2019/07/16 02:19:12;;;;;;;13.65;12.25;;;;;;;11.63;100;95251.62;;;;
2019/07/16 02:20:13;;;;;;;14.8;12.65;;;;;;;11.63;100;95261.21;;;;
2019/07/16 02:21:14;;;;;;;14.8;12.65;;;;;;;11.63;100;95261.21;;;;
2019/07/16 02:22:15;;;;;;;14.8;12.65;;;;;;;11.63;100;95261.21;;;;
2019/07/16 02:23:17;;;;;;;14.8;12.65;;;;;;;11.63;100;95261.21;;;;
2019/07/16 02:24:18;;;;;;;14.8;12.65;;;;;;;11.63;100;95261.21;;;;
2019/07/16 02:25:19;;;;;;;14.8;12.65;;;;;;;11.63;100;95261.21;;;;
2019/07/16 02:26:20;;;;;;;14.8;12.65;;;;;;;11.63;100;95261.21;;;;
2019/07/16 02:27:21;;;;;;;14.8;12.65;;;;;;;11.63;100;95261.21;;;;
2019/07/16 02:28:22;;;;;;;14.8;12.65;;;;;;;11.63;100;95261.21;;;;
2019/07/16 02:29:23;;;;;;;14.8;12.65;;;;;;;11.63;100;95261.21;;;;
2019/07/16 02:30:24;;;;;;;14.2;12.65;;;;;;;11.56;100;95267.7;;;;
2019/07/16 02:31:26;;;;;;;14.2;12.65;;;;;;;11.56;100;95267.7;;;;
2019/07/16 02:32:27;;;;;;;14.2;12.65;;;;;;;11.56;100;95267.7;;;;
2019/07/16 02:33:28;;;;;;;14.2;12.65;;;;;;;11.56;100;95267.7;;;;
2019/07/16 02:34:29;;;;;;;14.2;12.65;;;;;;;11.56;100;95267.7;;;;
2019/07/16 02:35:30;;;;;;;14.2;12.65;;;;;;;11.56;100;95267.7;;;;
2019/07/16 02:36:31;;;;;;;14.2;12.65;;;;;;;11.56;100;95267.7;;;;
2019/07/16 02:37:33;;;;;;;14.2;12.65;;;;;;;11.56;100;95267.7;;;;
2019/07/16 02:38:35;;;;;;;14.2;12.65;;;;;;;11.56;100;95267.7;;;;
2019/07/16 02:39:36;;;;;;;14.2;12.65;;;;;;;11.56;100;95267.7;;;;
2019/07/16 02:40:37;;;;;;;14.2;12.65;;;;;;;11.56;100;95267.7;;;;
2019/07/16 02:41:39;;;;;;;14.15;12.25;;;;;;;11.56;100;95270.83;;;;
2019/07/16 02:42:40;;;;;;;14.15;12.25;;;;;;;11.56;100;95270.83;;;;
2019/07/16 02:43:41;;;;;;;14.15;12.25;;;;;;;11.56;100;95270.83;;;;
2019/07/16 02:44:42;;;;;;;14.15;12.25;;;;;;;11.56;100;95270.83;;;;
2019/07/16 02:45:44;;;;;;;14.15;12.25;;;;;;;11.56;100;95270.83;;;;
2019/07/16 02:46:45;;;;;;;14.15;12.25;;;;;;;11.56;100;95270.83;;;;
2019/07/16 02:47:46;;;;;;;14.15;12.25;;;;;;;11.56;100;95270.83;;;;
2019/07/16 02:48:47;;;;;;;14.15;12.25;;;;;;;11.56;100;95270.83;;;;
2019/07/16 02:49:48;;;;;;;14.15;12.25;;;;;;;11.56;100;95270.83;;;;
2019/07/16 02:50:49;;;;;;;14.15;12.25;;;;;;;11.56;100;95270.83;;;;
2019/07/16 02:51:50;;;;;;;13.85;12.4;;;;;;;11.49;100;95273.66;;;;
2019/07/16 02:52:52;;;;;;;13.85;12.4;;;;;;;11.49;100;95273.66;;;;
2019/07/16 02:53:53;;;;;;;13.85;12.4;;;;;;;11.49;100;95273.66;;;;
2019/07/16 02:54:54;;;;;;;13.85;12.4;;;;;;;11.49;100;95273.66;;;;
2019/07/16 02:55:55;;;;;;;13.85;12.4;;;;;;;11.49;100;95273.66;;;;
2019/07/16 02:56:56;;;;;;;13.85;12.4;;;;;;;11.49;100;95273.66;;;;
2019/07/16 02:57:57;;;;;;;13.85;12.4;;;;;;;11.49;100;95273.66;;;;
2019/07/16 02:58:58;;;;;;;13.85;12.4;;;;;;;11.49;100;95273.66;;;;
2019/07/16 02:59:59;;;;;;;13.85;12.4;;;;;;;11.49;100;95273.66;;;;
2019/07/16 03:01:00;;;;;;;13.85;12.4;;;;;;;11.49;100;95273.66;;;;
2019/07/16 03:02:01;;;;;;;14.35;12.95;;;;;;;11.55;100;95270.94;;;;
2019/07/16 03:03:03;;;;;;;14.35;12.95;;;;;;;11.55;100;95270.94;;;;
2019/07/16 03:04:04;;;;;;;14.35;12.95;;;;;;;11.55;100;95270.94;;;;
2019/07/16 03:05:05;;;;;;;14.35;12.95;;;;;;;11.55;100;95270.94;;;;
2019/07/16 03:06:06;;;;;;;14.35;12.95;;;;;;;11.55;100;95270.94;;;;
2019/07/16 03:07:08;;;;;;;14.35;12.95;;;;;;;11.55;100;95270.94;;;;
2019/07/16 03:08:09;;;;;;;14.35;12.95;;;;;;;11.55;100;95270.94;;;;
2019/07/16 03:09:10;;;;;;;14.35;12.95;;;;;;;11.55;100;95270.94;;;;
2019/07/16 03:10:11;;;;;;;14.35;12.95;;;;;;;11.55;100;95270.94;;;;
2019/07/16 03:11:12;;;;;;;14.35;12.95;;;;;;;11.55;100;95270.94;;;;
2019/07/16 03:12:13;;;;;;;14.35;12.95;;;;;;;11.55;100;95270.94;;;;
2019/07/16 03:13:14;;;;;;;15.8;14.2;;;;;;;11.57;100;95276.51;;;;
2019/07/16 03:14:15;;;;;;;15.8;14.2;;;;;;;11.57;100;95276.51;;;;
2019/07/16 03:15:17;;;;;;;15.8;14.2;;;;;;;11.57;100;95276.51;;;;
2019/07/16 03:16:18;;;;;;;15.8;14.2;;;;;;;11.57;100;95276.51;;;;
2019/07/16 03:17:19;;;;;;;15.8;14.2;;;;;;;11.57;100;95276.51;;;;
2019/07/16 03:18:20;;;;;;;15.8;14.2;;;;;;;11.57;100;95276.51;;;;
2019/07/16 03:19:21;;;;;;;15.8;14.2;;;;;;;11.57;100;95276.51;;;;
2019/07/16 03:20:23;;;;;;;15.8;14.2;;;;;;;11.57;100;95276.51;;;;
2019/07/16 03:21:25;;;;;;;15.8;14.2;;;;;;;11.57;100;95276.51;;;;
2019/07/16 03:22:26;;;;;;;15.8;14.2;;;;;;;11.57;100;95276.51;;;;
2019/07/16 03:23:27;;;;;;;15.4;13.3;;;;;;;11.65;100;95271.17;;;;
2019/07/16 03:24:28;;;;;;;15.4;13.3;;;;;;;11.65;100;95271.17;;;;
2019/07/16 03:25:29;;;;;;;15.4;13.3;;;;;;;11.65;100;95271.17;;;;
2019/07/16 03:26:30;;;;;;;15.4;13.3;;;;;;;11.65;100;95271.17;;;;
2019/07/16 03:27:31;;;;;;;15.4;13.3;;;;;;;11.65;100;95271.17;;;;
2019/07/16 03:28:32;;;;;;;15.4;13.3;;;;;;;11.65;100;95271.17;;;;
2019/07/16 03:29:33;;;;;;;15.4;13.3;;;;;;;11.65;100;95271.17;;;;
2019/07/16 03:30:34;;;;;;;15.4;13.3;;;;;;;11.65;100;95271.17;;;;
2019/07/16 03:31:35;;;;;;;15.4;13.3;;;;;;;11.65;100;95271.17;;;;
2019/07/16 03:32:36;;;;;;;15.4;13.3;;;;;;;11.65;100;95271.17;;;;
2019/07/16 03:33:37;;;;;;;15.3;13.7;;;;;;;11.63;100;95274.72;;;;
2019/07/16 03:34:38;;;;;;;15.3;13.7;;;;;;;11.63;100;95274.72;;;;
2019/07/16 03:35:40;;;;;;;15.3;13.7;;;;;;;11.63;100;95274.72;;;;
2019/07/16 03:36:41;;;;;;;15.3;13.7;;;;;;;11.63;100;95274.72;;;;
2019/07/16 03:37:42;;;;;;;15.3;13.7;;;;;;;11.63;100;95274.72;;;;
2019/07/16 03:38:43;;;;;;;15.3;13.7;;;;;;;11.63;100;95274.72;;;;
2019/07/16 03:39:44;;;;;;;15.3;13.7;;;;;;;11.63;100;95274.72;;;;
2019/07/16 03:40:45;;;;;;;15.3;13.7;;;;;;;11.63;100;95274.72;;;;
2019/07/16 03:41:46;;;;;;;15.3;13.7;;;;;;;11.63;100;95274.72;;;;
2019/07/16 03:42:47;;;;;;;15.3;13.7;;;;;;;11.63;100;95274.72;;;;
2019/07/16 03:43:48;;;;;;;15.3;13.7;;;;;;;11.63;100;95274.72;;;;
2019/07/16 03:44:49;;;;;;;17.6;14.5;;;;;;;11.71;100;95287.76;;;;
2019/07/16 03:45:51;;;;;;;17.6;14.5;;;;;;;11.71;100;95287.76;;;;
2019/07/16 03:46:52;;;;;;;17.6;14.5;;;;;;;11.71;100;95287.76;;;;
2019/07/16 03:47:53;;;;;;;17.6;14.5;;;;;;;11.71;100;95287.76;;;;
2019/07/16 03:48:54;;;;;;;17.6;14.5;;;;;;;11.71;100;95287.76;;;;
2019/07/16 03:49:55;;;;;;;17.6;14.5;;;;;;;11.71;100;95287.76;;;;
2019/07/16 03:50:56;;;;;;;17.6;14.5;;;;;;;11.71;100;95287.76;;;;
2019/07/16 03:51:57;;;;;;;17.6;14.5;;;;;;;11.71;100;95287.76;;;;
2019/07/16 03:52:58;;;;;;;17.6;14.5;;;;;;;11.71;100;95287.76;;;;
2019/07/16 03:53:59;;;;;;;17.6;14.5;;;;;;;11.71;100;95287.76;;;;
2019/07/16 03:55:00;;;;;;;15.85;14.3;;;;;;;11.81;100;95300.14;;;;
2019/07/16 03:56:03;;;;;;;15.85;14.3;;;;;;;11.81;100;95300.14;;;;
2019/07/16 03:57:04;;;;;;;15.85;14.3;;;;;;;11.81;100;95300.14;;;;
2019/07/16 03:58:05;;;;;;;15.85;14.3;;;;;;;11.81;100;95300.14;;;;
2019/07/16 03:59:06;;;;;;;15.85;14.3;;;;;;;11.81;100;95300.14;;;;
2019/07/16 04:00:07;;;;;;;15.85;14.3;;;;;;;11.81;100;95300.14;;;;
2019/07/16 04:01:10;;;;;;;15.85;14.3;;;;;;;11.81;100;95300.14;;;;
2019/07/16 04:02:11;;;;;;;15.85;14.3;;;;;;;11.81;100;95300.14;;;;
2019/07/16 04:03:12;;;;;;;15.85;14.3;;;;;;;11.81;100;95300.14;;;;
2019/07/16 04:04:13;;;;;;;15.85;14.3;;;;;;;11.81;100;95300.14;;;;
2019/07/16 04:05:14;;;;;;;15.85;14.3;;;;;;;11.81;100;95300.14;;;;
2019/07/16 04:06:16;;;;;;;16.3;14.6;;;;;;;11.97;100;95300.7;;;;
2019/07/16 04:07:17;;;;;;;16.3;14.6;;;;;;;11.97;100;95300.7;;;;
2019/07/16 04:08:18;;;;;;;16.3;14.6;;;;;;;11.97;100;95300.7;;;;
2019/07/16 04:09:19;;;;;;;16.3;14.6;;;;;;;11.97;100;95300.7;;;;
2019/07/16 04:10:20;;;;;;;16.3;14.6;;;;;;;11.97;100;95300.7;;;;
2019/07/16 04:11:22;;;;;;;16.3;14.6;;;;;;;11.97;100;95300.7;;;;
2019/07/16 04:12:23;;;;;;;16.3;14.6;;;;;;;11.97;100;95300.7;;;;
2019/07/16 04:13:24;;;;;;;16.3;14.6;;;;;;;11.97;100;95300.7;;;;
2019/07/16 04:14:25;;;;;;;16.3;14.6;;;;;;;11.97;100;95300.7;;;;
2019/07/16 04:15:26;;;;;;;16.3;14.6;;;;;;;11.97;100;95300.7;;;;
2019/07/16 04:16:39;;;;;;;15.15;13.55;;;;;;;12.13;100;95309.06;;;;
2019/07/16 04:17:40;;;;;;;15.15;13.55;;;;;;;12.13;100;95309.06;;;;
2019/07/16 04:18:41;;;;;;;15.15;13.55;;;;;;;12.13;100;95309.06;;;;
2019/07/16 04:19:42;;;;;;;15.15;13.55;;;;;;;12.13;100;95309.06;;;;
2019/07/16 04:20:43;;;;;;;15.15;13.55;;;;;;;12.13;100;95309.06;;;;
2019/07/16 04:21:44;;;;;;;15.15;13.55;;;;;;;12.13;100;95309.06;;;;
2019/07/16 04:22:46;;;;;;;15.15;13.55;;;;;;;12.13;100;95309.06;;;;
2019/07/16 04:23:47;;;;;;;15.15;13.55;;;;;;;12.13;100;95309.06;;;;
2019/07/16 04:24:48;;;;;;;15.15;13.55;;;;;;;12.13;100;95309.06;;;;
2019/07/16 04:25:49;;;;;;;15.15;13.55;;;;;;;12.13;100;95309.06;;;;
2019/07/16 04:26:50;;;;;;;16.65;13.6;;;;;;;12.36;100;95313.37;;;;
2019/07/16 04:27:51;;;;;;;16.65;13.6;;;;;;;12.36;100;95313.37;;;;
2019/07/16 04:28:53;;;;;;;16.65;13.6;;;;;;;12.36;100;95313.37;;;;
2019/07/16 04:29:54;;;;;;;16.65;13.6;;;;;;;12.36;100;95313.37;;;;
2019/07/16 04:30:55;;;;;;;16.65;13.6;;;;;;;12.36;100;95313.37;;;;
2019/07/16 04:31:56;;;;;;;16.65;13.6;;;;;;;12.36;100;95313.37;;;;
2019/07/16 04:32:57;;;;;;;16.65;13.6;;;;;;;12.36;100;95313.37;;;;
2019/07/16 04:33:58;;;;;;;16.65;13.6;;;;;;;12.36;100;95313.37;;;;
2019/07/16 04:34:59;;;;;;;16.65;13.6;;;;;;;12.36;100;95313.37;;;;
2019/07/16 04:36:00;;;;;;;16.65;13.6;;;;;;;12.36;100;95313.37;;;;
2019/07/16 04:37:01;;;;;;;16.65;13.6;;;;;;;12.36;100;95313.37;;;;
2019/07/16 04:38:02;;;;;;;13.65;12.35;;;;;;;12.58;100;95322;;;;
2019/07/16 04:39:04;;;;;;;13.65;12.35;;;;;;;12.58;100;95322;;;;
2019/07/16 04:40:05;;;;;;;13.65;12.35;;;;;;;12.58;100;95322;;;;
2019/07/16 04:41:06;;;;;;;13.65;12.35;;;;;;;12.58;100;95322;;;;
2019/07/16 04:42:07;;;;;;;13.65;12.35;;;;;;;12.58;100;95322;;;;
2019/07/16 04:43:08;;;;;;;13.65;12.35;;;;;;;12.58;100;95322;;;;
2019/07/16 04:44:10;;;;;;;13.65;12.35;;;;;;;12.58;100;95322;;;;
2019/07/16 04:45:11;;;;;;;13.65;12.35;;;;;;;12.58;100;95322;;;;
2019/07/16 04:46:12;;;;;;;13.65;12.35;;;;;;;12.58;100;95322;;;;
2019/07/16 04:47:13;;;;;;;13.65;12.35;;;;;;;12.58;100;95322;;;;
2019/07/16 04:48:14;;;;;;;13.45;11.95;;;;;;;12.91;100;95326.98;;;;
2019/07/16 04:49:15;;;;;;;13.45;11.95;;;;;;;12.91;100;95326.98;;;;
2019/07/16 04:50:17;;;;;;;13.45;11.95;;;;;;;12.91;100;95326.98;;;;
2019/07/16 04:51:18;;;;;;;13.45;11.95;;;;;;;12.91;100;95326.98;;;;
2019/07/16 04:52:19;;;;;;;13.45;11.95;;;;;;;12.91;100;95326.98;;;;
2019/07/16 04:53:20;;;;;;;13.45;11.95;;;;;;;12.91;100;95326.98;;;;
2019/07/16 04:54:21;;;;;;;13.45;11.95;;;;;;;12.91;100;95326.98;;;;
2019/07/16 04:55:22;;;;;;;13.45;11.95;;;;;;;12.91;100;95326.98;;;;
2019/07/16 04:56:23;;;;;;;13.45;11.95;;;;;;;12.91;100;95326.98;;;;
2019/07/16 04:57:25;;;;;;;13.45;11.95;;;;;;;12.91;100;95326.98;;;;
2019/07/16 04:58:26;;;;;;;12.05;10.8;;;;;;;13.29;100;95316.16;;;;
2019/07/16 04:59:27;;;;;;;12.05;10.8;;;;;;;13.29;100;95316.16;;;;
2019/07/16 05:00:28;;;;;;;12.05;10.8;;;;;;;13.29;100;95316.16;;;;
2019/07/16 05:01:29;;;;;;;12.05;10.8;;;;;;;13.29;100;95316.16;;;;
2019/07/16 05:02:30;;;;;;;12.05;10.8;;;;;;;13.29;100;95316.16;;;;
2019/07/16 05:03:31;;;;;;;12.05;10.8;;;;;;;13.29;100;95316.16;;;;
2019/07/16 05:04:32;;;;;;;12.05;10.8;;;;;;;13.29;100;95316.16;;;;
2019/07/16 05:05:33;;;;;;;12.05;10.8;;;;;;;13.29;100;95316.16;;;;
2019/07/16 05:06:34;;;;;;;12.05;10.8;;;;;;;13.29;100;95316.16;;;;
2019/07/16 05:07:35;;;;;;;12.05;10.8;;;;;;;13.29;100;95316.16;;;;
2019/07/16 05:08:37;;;;;;;12.05;10.8;;;;;;;13.29;100;95316.16;;;;
2019/07/16 05:09:38;;;;;;;13.5;10.95;;;;;;;13.7;100;95324.24;;;;
2019/07/16 05:10:39;;;;;;;13.5;10.95;;;;;;;13.7;100;95324.24;;;;
2019/07/16 05:11:41;;;;;;;13.5;10.95;;;;;;;13.7;100;95324.24;;;;
2019/07/16 05:12:42;;;;;;;13.5;10.95;;;;;;;13.7;100;95324.24;;;;
2019/07/16 05:13:43;;;;;;;13.5;10.95;;;;;;;13.7;100;95324.24;;;;
2019/07/16 05:14:44;;;;;;;13.5;10.95;;;;;;;13.7;100;95324.24;;;;
2019/07/16 05:15:45;;;;;;;13.5;10.95;;;;;;;13.7;100;95324.24;;;;
2019/07/16 05:16:46;;;;;;;13.5;10.95;;;;;;;13.7;100;95324.24;;;;
2019/07/16 05:17:47;;;;;;;13.5;10.95;;;;;;;13.7;100;95324.24;;;;
2019/07/16 05:18:48;;;;;;;13.5;10.95;;;;;;;13.7;100;95324.24;;;;
2019/07/16 05:19:49;;;;;;;12.95;10.5;;;;;;;13.97;100;95324.14;;;;
2019/07/16 05:20:50;;;;;;;12.95;10.5;;;;;;;13.97;100;95324.14;;;;
2019/07/16 05:21:51;;;;;;;12.95;10.5;;;;;;;13.97;100;95324.14;;;;
2019/07/16 05:22:53;;;;;;;12.95;10.5;;;;;;;13.97;100;95324.14;;;;
2019/07/16 05:23:54;;;;;;;12.95;10.5;;;;;;;13.97;100;95324.14;;;;
2019/07/16 05:24:55;;;;;;;12.95;10.5;;;;;;;13.97;100;95324.14;;;;
2019/07/16 05:25:56;;;;;;;12.95;10.5;;;;;;;13.97;100;95324.14;;;;
2019/07/16 05:26:57;;;;;;;12.95;10.5;;;;;;;13.97;100;95324.14;;;;
2019/07/16 05:27:58;;;;;;;12.95;10.5;;;;;;;13.97;100;95324.14;;;;
2019/07/16 05:29:00;;;;;;;12.95;10.5;;;;;;;13.97;100;95324.14;;;;
2019/07/16 05:30:01;;;;;;;12.95;10.5;;;;;;;13.97;100;95324.14;;;;
2019/07/16 05:31:03;;;;;;;12.4;10.8;;;;;;;14.29;100;95335.06;;;;
2019/07/16 05:32:04;;;;;;;12.4;10.8;;;;;;;14.29;100;95335.06;;;;
2019/07/16 05:33:05;;;;;;;12.4;10.8;;;;;;;14.29;100;95335.06;;;;
2019/07/16 05:34:06;;;;;;;12.4;10.8;;;;;;;14.29;100;95335.06;;;;
2019/07/16 05:35:07;;;;;;;12.4;10.8;;;;;;;14.29;100;95335.06;;;;
2019/07/16 05:36:08;;;;;;;12.4;10.8;;;;;;;14.29;100;95335.06;;;;
2019/07/16 05:37:10;;;;;;;12.4;10.8;;;;;;;14.29;100;95335.06;;;;
2019/07/16 05:38:11;;;;;;;12.4;10.8;;;;;;;14.29;100;95335.06;;;;
2019/07/16 05:39:12;;;;;;;12.4;10.8;;;;;;;14.29;100;95335.06;;;;
2019/07/16 05:40:13;;;;;;;12.4;10.8;;;;;;;14.29;100;95335.06;;;;
2019/07/16 05:41:15;;;;;;;11.5;10.3;;;;;;;14.47;100;95330.08;;;;
2019/07/16 05:42:16;;;;;;;11.5;10.3;;;;;;;14.47;100;95330.08;;;;
2019/07/16 05:43:17;;;;;;;11.5;10.3;;;;;;;14.47;100;95330.08;;;;
2019/07/16 05:44:18;;;;;;;11.5;10.3;;;;;;;14.47;100;95330.08;;;;
2019/07/16 05:45:19;;;;;;;11.5;10.3;;;;;;;14.47;100;95330.08;;;;
2019/07/16 05:46:21;;;;;;;11.5;10.3;;;;;;;14.47;100;95330.08;;;;
2019/07/16 05:47:22;;;;;;;11.5;10.3;;;;;;;14.47;100;95330.08;;;;
2019/07/16 05:48:23;;;;;;;11.5;10.3;;;;;;;14.47;100;95330.08;;;;
2019/07/16 05:49:24;;;;;;;11.5;10.3;;;;;;;14.47;100;95330.08;;;;
2019/07/16 05:50:25;;;;;;;11.5;10.3;;;;;;;14.47;100;95330.08;;;;
2019/07/16 05:51:27;;;;;;;12.95;10.75;;;;;;;14.84;100;95331.48;;;;
2019/07/16 05:52:28;;;;;;;12.95;10.75;;;;;;;14.84;100;95331.48;;;;
2019/07/16 05:53:29;;;;;;;12.95;10.75;;;;;;;14.84;100;95331.48;;;;
2019/07/16 05:54:30;;;;;;;12.95;10.75;;;;;;;14.84;100;95331.48;;;;
2019/07/16 05:55:31;;;;;;;12.95;10.75;;;;;;;14.84;100;95331.48;;;;
2019/07/16 05:56:32;;;;;;;12.95;10.75;;;;;;;14.84;100;95331.48;;;;
2019/07/16 05:57:33;;;;;;;12.95;10.75;;;;;;;14.84;100;95331.48;;;;
2019/07/16 05:58:34;;;;;;;12.95;10.75;;;;;;;14.84;100;95331.48;;;;
2019/07/16 05:59:35;;;;;;;12.95;10.75;;;;;;;14.84;100;95331.48;;;;
2019/07/16 06:00:37;;;;;;;12.95;10.75;;;;;;;14.84;100;95331.48;;;;
2019/07/16 06:01:38;;;;;;;12.95;10.75;;;;;;;14.84;100;95331.48;;;;
2019/07/16 06:02:39;;;;;;;11.05;9.950001;;;;;;;15.11;100;95343.08;;;;
2019/07/16 06:03:40;;;;;;;11.05;9.950001;;;;;;;15.11;100;95343.08;;;;
2019/07/16 06:04:41;;;;;;;11.05;9.950001;;;;;;;15.11;100;95343.08;;;;
2019/07/16 06:05:42;;;;;;;11.05;9.950001;;;;;;;15.11;100;95343.08;;;;
2019/07/16 06:06:43;;;;;;;11.05;9.950001;;;;;;;15.11;100;95343.08;;;;
2019/07/16 06:07:44;;;;;;;11.05;9.950001;;;;;;;15.11;100;95343.08;;;;